Time;durP1;ratioP1;P1;durP2;ratioP2;P2;SDS_P1;SDS_P2;PMS_P1;PMS_P2;Temp;Humidity;BMP_temperature;BMP_pressure;BME280_temperature;BME280_humidity;BME280_pressure;Samples;Min_cycle;Max_cycle;Signal;HPM_P1;HPM_P2
2024/02/04 00:04:32;;;;;;;5.20;2.70;;;;;;;9.52;75.49;98917.19;232140;196;137848;-60
2024/02/04 00:09:36;;;;;;;7.10;2.60;;;;;;;9.47;75.39;98916.08;232226;203;138905;-61
2024/02/04 00:14:39;;;;;;;3.40;2.30;;;;;;;9.42;75.62;98921.14;232187;203;153645;-61
2024/02/04 00:19:42;;;;;;;5.00;2.80;;;;;;;9.51;75.62;98916.15;232278;201;137874;-60
2024/02/04 00:24:45;;;;;;;4.20;2.60;;;;;;;9.56;75.51;98906.88;232000;204;138396;-61
2024/02/04 00:29:49;;;;;;;4.70;2.90;;;;;;;9.57;75.59;98896.17;231892;204;153066;-61
2024/02/04 00:34:53;;;;;;;5.70;3.10;;;;;;;9.56;75.52;98884.15;231969;201;138210;-61
2024/02/04 00:39:56;;;;;;;3.40;2.90;;;;;;;9.56;75.30;98880.24;231954;197;137631;-61
2024/02/04 00:44:59;;;;;;;5.20;3.10;;;;;;;9.46;75.44;98879.28;231731;198;154103;-61
2024/02/04 00:50:03;;;;;;;4.40;2.80;;;;;;;9.40;75.46;98880.34;231860;199;138461;-62
2024/02/04 00:55:07;;;;;;;6.00;3.20;;;;;;;9.40;75.53;98893.95;231719;198;137469;-62
2024/02/04 01:00:12;;;;;;;6.30;2.90;;;;;;;9.53;75.60;98892.00;231750;198;153737;-61
2024/02/04 01:05:15;;;;;;;4.60;3.10;;;;;;;9.60;75.37;98895.09;231708;201;137650;-62
2024/02/04 01:10:19;;;;;;;4.90;2.90;;;;;;;9.58;75.43;98890.23;231840;204;138656;-60
2024/02/04 01:15:22;;;;;;;4.40;2.70;;;;;;;9.53;75.62;98891.77;231853;202;153891;-60
2024/02/04 01:20:25;;;;;;;4.40;2.50;;;;;;;9.46;76.05;98905.11;231891;204;138950;-61
2024/02/04 01:25:29;;;;;;;3.50;2.50;;;;;;;9.42;76.40;98898.79;232013;198;138351;-60
2024/02/04 01:30:32;;;;;;;4.30;2.50;;;;;;;9.34;76.82;98900.02;231934;201;153168;-60
2024/02/04 01:35:35;;;;;;;3.50;2.40;;;;;;;9.35;77.20;98897.98;231802;204;138509;-60
2024/02/04 01:40:39;;;;;;;3.50;2.40;;;;;;;9.33;77.38;98885.01;231929;201;138376;-60
2024/02/04 01:45:42;;;;;;;3.70;2.10;;;;;;;9.27;77.59;98881.15;231884;198;153254;-60
2024/02/04 01:50:47;;;;;;;4.50;2.70;;;;;;;9.27;77.99;98881.51;231803;197;140212;-62
2024/02/04 01:55:51;;;;;;;3.40;2.50;;;;;;;9.36;77.80;98868.21;232213;204;137287;-62
2024/02/04 02:00:54;;;;;;;4.00;2.70;;;;;;;9.40;77.79;98862.45;231961;204;154338;-62
2024/02/04 02:05:59;;;;;;;4.80;2.90;;;;;;;9.41;77.57;98854.74;232058;197;138442;-60
2024/02/04 02:11:18;;;;;;;4.20;2.60;;;;;;;9.41;77.51;98855.70;232041;197;138547;-60
2024/02/04 02:16:24;;;;;;;4.00;2.80;;;;;;;9.33;77.60;98855.25;232025;201;154563;-61
2024/02/04 02:21:46;;;;;;;4.80;2.80;;;;;;;9.32;77.77;98845.45;232064;200;137475;-62
2024/02/04 02:26:50;;;;;;;4.30;2.50;;;;;;;9.29;77.93;98845.92;232135;200;138557;-61
2024/02/04 02:31:54;;;;;;;4.30;2.80;;;;;;;9.34;78.00;98841.91;232212;199;153264;-61
2024/02/04 02:37:01;;;;;;;4.40;3.00;;;;;;;9.34;78.05;98848.14;232255;197;138306;-62
2024/02/04 02:42:05;;;;;;;3.50;2.60;;;;;;;9.37;78.06;98846.55;232289;204;138201;-62
2024/02/04 02:47:09;;;;;;;3.90;2.60;;;;;;;9.37;77.80;98855.40;232145;204;153439;-61
2024/02/04 02:52:12;;;;;;;5.80;3.00;;;;;;;9.30;77.94;98857.04;232119;204;138219;-62
2024/02/04 02:57:16;;;;;;;5.30;2.40;;;;;;;9.23;78.24;98844.70;232272;204;138091;-61
2024/02/04 03:02:19;;;;;;;2.80;2.10;;;;;;;9.29;78.39;98844.90;231983;204;153148;-60
2024/02/04 03:07:22;;;;;;;3.50;2.20;;;;;;;9.28;77.98;98858.38;232346;204;139361;-61
2024/02/04 03:12:25;;;;;;;3.00;2.00;;;;;;;9.19;77.85;98872.75;232182;197;139122;-61
2024/02/04 03:17:29;;;;;;;2.70;1.60;;;;;;;9.10;77.32;98878.58;232085;204;153766;-60
2024/02/04 03:22:32;;;;;;;2.50;1.90;;;;;;;9.08;77.09;98883.52;232080;197;138623;-61
2024/02/04 03:27:36;;;;;;;3.40;1.80;;;;;;;9.02;76.48;98880.42;232153;204;139453;-61
2024/02/04 03:32:39;;;;;;;3.60;2.00;;;;;;;9.01;76.55;98866.90;232090;197;154109;-61
2024/02/04 03:37:43;;;;;;;3.70;1.70;;;;;;;9.03;75.59;98843.62;232227;204;137438;-61
2024/02/04 03:42:46;;;;;;;3.50;1.60;;;;;;;8.98;75.06;98841.23;231948;197;138840;-61
2024/02/04 03:47:49;;;;;;;3.30;1.50;;;;;;;8.97;74.62;98841.13;232081;197;153257;-59
2024/02/04 03:52:53;;;;;;;2.70;1.50;;;;;;;8.94;74.47;98849.99;232139;204;137632;-60
2024/02/04 03:57:58;;;;;;;;;;;;;;;8.88;74.29;98850.16;232067;204;138216;-60
2024/02/04 04:03:02;;;;;;;1.80;1.10;;;;;;;8.88;73.99;98852.08;232271;204;155094;-60
2024/02/04 04:08:06;;;;;;;3.40;1.10;;;;;;;8.89;73.61;98851.16;232320;197;137273;-61
2024/02/04 04:13:09;;;;;;;1.40;0.80;;;;;;;8.87;72.93;98853.75;232316;204;138432;-61
2024/02/04 04:18:13;;;;;;;2.10;1.20;;;;;;;8.88;72.86;98853.48;232270;201;154600;-61
2024/02/04 04:23:16;;;;;;;2.20;0.90;;;;;;;8.88;72.26;98849.58;232117;201;138777;-60
2024/02/04 04:28:19;;;;;;;3.10;1.00;;;;;;;8.86;71.98;98855.91;232175;204;138088;-61
2024/02/04 04:33:22;;;;;;;4.40;1.30;;;;;;;8.84;71.89;98861.87;232012;201;155166;-60
2024/02/04 04:38:26;;;;;;;3.30;1.40;;;;;;;8.87;71.60;98863.30;232111;204;138335;-59
2024/02/04 04:43:29;;;;;;;3.40;1.30;;;;;;;8.87;71.35;98868.06;232469;197;137979;-60
2024/02/04 04:48:32;;;;;;;3.10;1.20;;;;;;;8.89;71.19;98855.93;232120;204;153331;-60
2024/02/04 04:53:36;;;;;;;2.90;1.00;;;;;;;8.91;71.23;98851.39;232175;204;141882;-60
2024/02/04 04:58:39;;;;;;;4.20;1.50;;;;;;;8.87;70.99;98858.34;232182;200;137027;-59
2024/02/04 05:03:44;;;;;;;2.70;1.30;;;;;;;8.86;71.03;98852.73;232100;204;153234;-60
2024/02/04 05:08:47;;;;;;;2.60;1.10;;;;;;;8.95;71.13;98857.88;232229;204;138213;-60
2024/02/04 05:13:50;;;;;;;3.20;1.10;;;;;;;9.00;70.95;98855.96;232381;200;138835;-60
2024/02/04 05:18:54;;;;;;;1.90;1.00;;;;;;;9.00;70.94;98864.10;232119;201;153453;-59
2024/02/04 05:23:57;;;;;;;3.00;1.20;;;;;;;9.08;71.05;98862.58;232198;204;138184;-60
2024/02/04 05:29:01;;;;;;;3.50;1.50;;;;;;;9.12;70.87;98874.23;232107;197;138421;-60
2024/02/04 05:34:06;;;;;;;2.70;1.20;;;;;;;9.10;70.86;98872.41;232000;201;153769;-60
2024/02/04 05:39:14;;;;;;;5.60;1.50;;;;;;;9.05;71.14;98863.35;231931;197;137503;-60
2024/02/04 05:44:17;;;;;;;3.60;1.20;;;;;;;9.08;71.04;98858.66;232056;204;138421;-61
2024/02/04 05:49:20;;;;;;;1.90;1.10;;;;;;;9.10;71.02;98853.78;232077;201;155009;-61
2024/02/04 05:54:23;;;;;;;3.80;1.00;;;;;;;9.03;71.01;98872.63;232122;201;139224;-62
2024/02/04 05:59:26;;;;;;;2.40;0.80;;;;;;;8.88;71.19;98874.53;232109;201;137347;-61
2024/02/04 06:04:30;;;;;;;1.50;0.70;;;;;;;8.63;70.71;98869.78;232197;204;153763;-62
2024/02/04 06:09:33;;;;;;;3.60;0.70;;;;;;;8.54;70.68;98865.52;232016;201;138133;-62
2024/02/04 06:14:39;;;;;;;1.40;0.40;;;;;;;8.54;70.83;98867.14;232187;202;137859;-62
2024/02/04 06:19:43;;;;;;;2.00;0.70;;;;;;;8.49;70.36;98885.05;232148;204;153158;-62
2024/02/04 06:24:46;;;;;;;1.30;0.70;;;;;;;8.50;70.39;98889.42;232010;204;138337;-62
2024/02/04 06:29:49;;;;;;;2.60;0.80;;;;;;;8.49;70.60;98875.88;232212;197;137382;-62
2024/02/04 06:34:55;;;;;;;3.20;1.00;;;;;;;8.52;70.67;98854.48;232084;204;153574;-62
2024/02/04 06:39:59;;;;;;;2.40;1.00;;;;;;;8.53;71.06;98862.23;232094;197;138684;-63
2024/02/04 06:45:02;;;;;;;2.40;1.00;;;;;;;8.54;71.53;98872.45;232072;204;137268;-62
2024/02/04 06:50:07;;;;;;;1.70;0.80;;;;;;;8.60;72.42;98879.85;232185;201;153527;-62
2024/02/04 06:55:10;;;;;;;1.50;0.80;;;;;;;8.54;71.46;98877.74;232294;197;138295;-61
2024/02/04 07:00:15;;;;;;;2.30;1.00;;;;;;;8.56;70.81;98886.98;232211;204;138307;-61
2024/02/04 07:05:18;;;;;;;1.90;1.00;;;;;;;8.55;69.84;98892.72;232162;204;153431;-61
2024/02/04 07:10:21;;;;;;;2.50;1.20;;;;;;;8.51;69.27;98884.08;231908;197;138502;-61
2024/02/04 07:15:24;;;;;;;2.50;0.90;;;;;;;8.43;69.54;98871.81;232243;204;138062;-63
2024/02/04 07:20:28;;;;;;;2.50;0.80;;;;;;;8.46;70.12;98862.11;232262;204;153211;-61
2024/02/04 07:25:32;;;;;;;1.90;1.00;;;;;;;8.57;70.66;98857.59;232241;204;140505;-63
2024/02/04 07:30:35;;;;;;;7.40;4.60;;;;;;;8.78;71.43;98864.37;231944;198;138394;-63
2024/02/04 07:35:38;;;;;;;3.30;1.50;;;;;;;8.88;71.05;98871.92;232096;204;153198;-62
2024/02/04 07:40:42;;;;;;;25.50;20.70;;;;;;;8.85;68.59;98896.49;232113;204;138019;-62
2024/02/04 07:45:45;;;;;;;3.40;1.90;;;;;;;8.79;66.86;98884.78;232036;201;138082;-60
2024/02/04 07:50:49;;;;;;;3.40;1.30;;;;;;;8.80;65.79;98885.48;232149;204;153350;-60
2024/02/04 07:55:52;;;;;;;3.40;1.20;;;;;;;8.77;64.95;98882.45;232346;201;137689;-62
2024/02/04 08:00:55;;;;;;;28.90;24.40;;;;;;;8.83;64.34;98884.06;232168;204;137283;-62
2024/02/04 08:06:02;;;;;;;3.40;1.80;;;;;;;8.89;63.88;98900.52;232104;204;153792;-50
2024/02/04 08:11:05;;;;;;;5.00;1.50;;;;;;;8.87;63.82;98906.48;232180;197;137402;-62
2024/02/04 08:16:08;;;;;;;5.80;2.30;;;;;;;8.89;63.39;98897.16;232214;201;138355;-60
2024/02/04 08:21:12;;;;;;;6.70;1.20;;;;;;;8.92;62.83;98904.96;232157;197;153554;-60
2024/02/04 08:26:15;;;;;;;3.90;1.20;;;;;;;8.88;62.81;98912.24;232039;204;137056;-60
2024/02/04 08:31:18;;;;;;;2.50;1.20;;;;;;;8.89;62.45;98919.63;232272;202;138406;-61
2024/02/04 08:36:22;;;;;;;5.00;1.50;;;;;;;8.83;61.38;98920.84;232020;204;153096;-61
2024/02/04 08:41:25;;;;;;;4.30;1.30;;;;;;;8.77;60.99;98915.69;232140;200;138392;-61
2024/02/04 08:46:28;;;;;;;6.00;1.40;;;;;;;8.76;60.79;98921.38;232177;204;138950;-61
2024/02/04 08:51:31;;;;;;;3.90;1.10;;;;;;;8.77;60.66;98917.78;232139;204;153095;-60
2024/02/04 08:56:34;;;;;;;127.10;88.10;;;;;;;8.76;60.26;98925.11;232216;197;138083;-63
2024/02/04 09:01:38;;;;;;;5.10;2.10;;;;;;;8.78;61.21;98920.57;232194;204;138200;-62
2024/02/04 09:06:41;;;;;;;5.90;1.70;;;;;;;8.91;61.29;98924.06;232159;204;153179;-63
2024/02/04 09:11:45;;;;;;;7.70;1.30;;;;;;;8.99;61.04;98925.55;232162;201;137630;-62
2024/02/04 09:16:48;;;;;;;6.20;1.60;;;;;;;9.02;61.09;98927.73;232128;204;137057;-62
2024/02/04 09:21:52;;;;;;;4.30;1.60;;;;;;;9.01;60.94;98944.04;232099;204;153837;-61
2024/02/04 09:26:55;;;;;;;3.80;1.70;;;;;;;8.96;60.83;98952.30;232050;201;138668;-62
2024/02/04 09:31:58;;;;;;;6.20;2.00;;;;;;;8.94;61.42;98950.30;232152;204;137811;-62
2024/02/04 09:37:02;;;;;;;7.10;2.10;;;;;;;8.99;61.80;98951.77;232021;201;153939;-62
2024/02/04 09:42:06;;;;;;;3.70;1.80;;;;;;;9.07;62.06;98967.05;231616;204;139162;-63
2024/02/04 09:47:12;;;;;;;4.20;1.90;;;;;;;9.14;62.03;98967.73;232147;204;138153;-62
2024/02/04 09:52:21;;;;;;;3.90;2.10;;;;;;;9.28;61.91;98950.81;232065;202;154102;-61
2024/02/04 09:57:24;;;;;;;5.10;2.20;;;;;;;9.28;61.06;98943.39;232308;201;137198;-60
2024/02/04 10:02:28;;;;;;;4.60;2.10;;;;;;;9.26;61.02;98933.07;232247;201;138274;-61
2024/02/04 10:07:31;;;;;;;16.90;10.10;;;;;;;9.30;60.91;98926.05;232327;204;153342;-61
2024/02/04 10:12:35;;;;;;;8.90;3.30;;;;;;;9.39;60.76;98923.25;232208;204;137163;-62
2024/02/04 10:17:43;;;;;;;9.10;3.80;;;;;;;9.38;60.85;98939.60;232073;201;137988;-59
2024/02/04 10:22:49;;;;;;;8.80;2.50;;;;;;;9.46;60.85;98914.84;232182;201;154033;-62
2024/02/04 10:27:55;;;;;;;161.40;101.60;;;;;;;9.53;60.22;98913.41;232076;204;138339;-62
2024/02/04 10:32:59;;;;;;;12.40;6.20;;;;;;;9.68;60.57;98910.02;232174;201;138087;-61
2024/02/04 10:38:02;;;;;;;8.30;2.60;;;;;;;9.72;61.07;98895.22;232042;197;154673;-62
2024/02/04 10:43:07;;;;;;;8.70;2.40;;;;;;;9.68;61.88;98881.63;231593;198;138518;-62
2024/02/04 10:48:11;;;;;;;6.20;2.50;;;;;;;9.66;62.21;98867.42;231660;198;137893;-59
2024/02/04 10:53:15;;;;;;;6.60;2.50;;;;;;;9.69;62.29;98853.27;231609;198;153392;-59
2024/02/04 10:58:19;;;;;;;4.90;2.00;;;;;;;9.72;62.01;98859.46;231587;197;137637;-63
2024/02/04 11:03:27;;;;;;;7.10;2.20;;;;;;;9.70;61.36;98844.83;231485;202;138289;-63
2024/02/04 11:08:31;;;;;;;6.00;2.10;;;;;;;9.78;61.01;98835.04;231636;205;155024;-63
2024/02/04 11:13:36;;;;;;;7.50;2.40;;;;;;;9.89;61.38;98822.98;231948;198;138619;-59
2024/02/04 11:18:58;;;;;;;6.90;2.50;;;;;;;10.06;61.44;98801.70;231206;198;138898;-60
2024/02/04 11:24:10;;;;;;;9.50;1.90;;;;;;;10.21;59.58;98801.23;230956;198;153779;-59
2024/02/04 11:29:14;;;;;;;4.40;1.80;;;;;;;10.21;58.16;98803.41;231464;205;138617;-59
2024/02/04 11:34:17;;;;;;;4.50;1.90;;;;;;;10.33;57.84;98793.96;231716;205;138451;-60
2024/02/04 11:39:22;;;;;;;21.80;16.40;;;;;;;10.42;56.87;98772.77;231645;198;153303;-62
2024/02/04 11:44:26;;;;;;;6.50;2.40;;;;;;;10.40;56.64;98780.39;231621;198;138331;-61
2024/02/04 11:49:30;;;;;;;6.20;2.30;;;;;;;10.37;56.40;98774.56;231817;198;138083;-63
2024/02/04 11:54:33;;;;;;;3.40;1.60;;;;;;;10.38;56.72;98770.73;231614;197;153786;-62
2024/02/04 11:59:37;;;;;;;6.50;2.00;;;;;;;10.37;56.37;98772.59;231658;202;137654;-62
2024/02/04 12:04:40;;;;;;;5.70;2.10;;;;;;;10.38;56.46;98752.09;231677;198;138405;-61
2024/02/04 12:09:44;;;;;;;34.80;26.00;;;;;;;10.46;56.54;98725.17;231590;198;155189;-63
2024/02/04 12:14:48;;;;;;;6.80;3.30;;;;;;;10.56;56.74;98707.44;231522;205;141019;-62
2024/02/04 12:19:53;;;;;;;4.10;2.00;;;;;;;10.59;56.81;98703.16;231678;202;137845;-61
2024/02/04 12:24:56;;;;;;;4.40;2.00;;;;;;;10.64;57.14;98694.16;231619;205;153334;-62
2024/02/04 12:30:00;;;;;;;65.00;48.50;;;;;;;10.53;57.48;98682.47;231615;205;138155;-57
2024/02/04 12:35:06;;;;;;;6.00;2.70;;;;;;;10.43;59.48;98667.71;231544;198;138633;-63
2024/02/04 12:40:11;;;;;;;5.10;1.80;;;;;;;10.35;60.33;98662.06;231569;202;153983;-58
2024/02/04 12:45:15;;;;;;;4.50;2.40;;;;;;;10.25;60.83;98672.50;231638;202;139394;-58
2024/02/04 12:50:19;;;;;;;5.80;2.30;;;;;;;10.13;62.14;98673.60;231613;205;138200;-57
2024/02/04 12:55:24;;;;;;;6.10;2.40;;;;;;;10.10;63.45;98673.98;231754;205;153974;-58
2024/02/04 13:00:28;;;;;;;7.50;2.90;;;;;;;10.02;64.76;98683.00;231638;199;138557;-58
2024/02/04 13:05:32;;;;;;;363.10;250.20;;;;;;;9.85;66.41;98687.34;231660;201;141611;-59
2024/02/04 13:10:36;;;;;;;13.70;7.30;;;;;;;9.80;68.23;98685.16;231616;205;156582;-60
2024/02/04 13:15:41;;;;;;;8.90;3.60;;;;;;;9.80;68.37;98679.53;231599;198;138157;-59
2024/02/04 13:20:45;;;;;;;9.90;3.90;;;;;;;9.70;68.79;98672.50;231511;198;142428;-64
2024/02/04 13:25:49;;;;;;;5.40;2.70;;;;;;;9.62;69.28;98664.36;231806;197;155248;-62
2024/02/04 13:30:52;;;;;;;7.90;3.30;;;;;;;9.64;69.68;98630.55;231656;198;138357;-63
2024/02/04 13:35:55;;;;;;;8.10;3.50;;;;;;;9.66;69.91;98614.84;231580;202;138932;-61
2024/02/04 13:40:59;;;;;;;7.80;3.40;;;;;;;9.65;70.42;98623.43;231527;198;153418;-62
2024/02/04 13:46:03;;;;;;;7.40;3.50;;;;;;;9.67;70.52;98623.29;231698;198;137728;-63
2024/02/04 13:51:07;;;;;;;5.90;3.20;;;;;;;9.65;70.80;98619.66;231561;205;138217;-63
2024/02/04 13:56:10;;;;;;;6.10;3.40;;;;;;;9.73;71.03;98626.10;231625;205;153112;-62
2024/02/04 14:01:15;;;;;;;6.80;4.20;;;;;;;9.83;71.15;98631.27;231733;201;139007;-61
2024/02/04 14:06:18;;;;;;;7.30;4.00;;;;;;;9.93;70.99;98628.84;231630;204;137925;-62
2024/02/04 14:11:22;;;;;;;6.40;3.80;;;;;;;9.93;71.03;98628.99;231680;197;153248;-62
2024/02/04 14:16:25;;;;;;;6.70;4.00;;;;;;;9.86;71.40;98616.20;231618;205;138055;-61
2024/02/04 14:21:28;;;;;;;82.30;52.70;;;;;;;9.75;71.95;98610.39;231458;204;137756;-67
2024/02/04 14:26:32;;;;;;;8.10;5.00;;;;;;;9.88;72.35;98591.11;231413;198;153164;-62
2024/02/04 14:31:35;;;;;;;7.20;3.60;;;;;;;9.93;71.38;98572.67;231702;199;138341;-61
2024/02/04 14:36:38;;;;;;;5.50;3.10;;;;;;;9.93;70.81;98561.86;231601;205;139174;-63
2024/02/04 14:41:41;;;;;;;5.80;3.40;;;;;;;9.81;70.57;98555.27;231664;198;154463;-62
2024/02/04 14:46:45;;;;;;;6.60;3.50;;;;;;;9.75;70.92;98551.41;231526;202;139027;-62
2024/02/04 14:51:48;;;;;;;6.20;3.50;;;;;;;9.76;70.83;98540.70;231630;198;138493;-61
2024/02/04 14:56:52;;;;;;;5.40;2.50;;;;;;;9.73;70.61;98544.95;231682;197;153238;-61
2024/02/04 15:01:56;;;;;;;4.40;2.10;;;;;;;9.64;70.91;98552.07;231714;198;138378;-60
2024/02/04 15:07:03;;;;;;;4.30;2.40;;;;;;;9.71;70.89;98555.55;231681;198;138193;-62
2024/02/04 15:12:07;;;;;;;3.70;2.60;;;;;;;9.76;70.79;98555.96;231335;198;153514;-62
2024/02/04 15:17:10;;;;;;;4.10;2.60;;;;;;;9.81;70.70;98550.79;231559;198;138002;-63
2024/02/04 15:22:14;;;;;;;3.90;2.50;;;;;;;9.84;70.63;98535.52;231707;205;140576;-63
2024/02/04 15:27:19;;;;;;;6.40;3.00;;;;;;;9.82;70.75;98523.83;231692;199;153181;-62
2024/02/04 15:32:23;;;;;;;3.50;2.50;;;;;;;9.78;70.75;98515.58;231715;198;138309;-62
2024/02/04 15:37:27;;;;;;;5.50;2.60;;;;;;;9.78;70.90;98506.75;231769;205;137922;-61
2024/02/04 15:42:30;;;;;;;4.70;2.40;;;;;;;9.81;70.81;98503.33;231632;198;153853;-61
2024/02/04 15:47:40;;;;;;;5.00;2.60;;;;;;;9.83;70.79;98503.34;231651;198;138367;-59
2024/02/04 15:52:44;;;;;;;4.60;2.80;;;;;;;9.87;70.76;98497.05;231684;201;138937;-60
2024/02/04 15:57:52;;;;;;;5.50;3.20;;;;;;;9.91;70.80;98494.13;231666;198;153537;-61
2024/02/04 16:02:56;;;;;;;5.00;2.60;;;;;;;9.90;70.56;98492.06;231991;197;137581;-62
2024/02/04 16:07:59;;;;;;;4.20;2.30;;;;;;;9.86;70.69;98487.40;232219;198;138541;-63
2024/02/04 16:13:09;;;;;;;291.50;226.20;;;;;;;9.83;70.76;98473.80;232188;200;153731;-60
2024/02/04 16:18:13;;;;;;;7.50;4.60;;;;;;;9.85;70.69;98467.44;232232;201;138474;-60
2024/02/04 16:23:16;;;;;;;4.90;2.50;;;;;;;9.82;70.46;98469.20;232166;200;138166;-60
2024/02/04 16:28:20;;;;;;;3.60;2.10;;;;;;;9.80;70.49;98470.13;231959;204;155225;-61
2024/02/04 16:33:24;;;;;;;45.80;38.40;;;;;;;9.73;71.21;98477.99;232181;203;137983;-65
2024/02/04 16:38:27;;;;;;;3.80;2.60;;;;;;;9.70;71.72;98473.23;231979;200;137914;-65
2024/02/04 16:43:31;;;;;;;2.80;1.90;;;;;;;9.71;71.73;98471.58;232237;204;155002;-64
2024/02/04 16:48:34;;;;;;;2.80;2.00;;;;;;;9.69;71.87;98463.37;232207;204;138455;-63
2024/02/04 16:53:38;;;;;;;3.90;1.90;;;;;;;9.73;71.96;98450.52;232203;204;137961;-64
2024/02/04 16:58:41;;;;;;;3.20;2.00;;;;;;;9.80;71.97;98442.11;231893;203;155614;-63
2024/02/04 17:03:45;;;;;;;5.20;3.60;;;;;;;9.78;72.45;98443.85;231797;205;137826;-63
2024/02/04 17:08:49;;;;;;;3.90;2.40;;;;;;;9.78;72.56;98449.52;232036;201;138283;-60
2024/02/04 17:13:53;;;;;;;3.30;2.10;;;;;;;9.75;72.62;98435.91;231877;202;153696;-62
2024/02/04 17:19:36;;;;;;;3.20;1.70;;;;;;;9.69;72.54;98430.58;231957;204;138399;-60
2024/02/04 17:24:46;;;;;;;3.60;1.80;;;;;;;9.63;72.34;98428.35;231987;201;137389;-61
2024/02/04 17:29:57;;;;;;;4.30;1.90;;;;;;;9.63;72.01;98422.67;231950;198;153044;-61
2024/02/04 17:35:00;;;;;;;3.20;1.80;;;;;;;9.55;72.20;98416.51;232122;204;138286;-60
2024/02/04 17:40:09;;;;;;;3.00;2.00;;;;;;;9.50;72.22;98422.91;232039;201;142472;-61
2024/02/04 17:45:12;;;;;;;4.80;2.10;;;;;;;9.52;71.84;98430.74;232041;204;155284;-60
2024/02/04 17:50:16;;;;;;;5.10;2.00;;;;;;;9.60;71.44;98429.13;232192;198;139097;-63
2024/02/04 17:55:20;;;;;;;7.00;3.50;;;;;;;9.63;70.92;98436.36;232011;201;136987;-60
2024/02/04 18:00:23;;;;;;;5.00;1.80;;;;;;;9.58;70.35;98437.91;231776;197;153293;-62
2024/02/04 18:05:26;;;;;;;4.40;2.10;;;;;;;9.55;70.33;98431.39;231850;201;137614;-66
2024/02/04 18:10:30;;;;;;;3.40;1.80;;;;;;;9.57;70.30;98426.80;231877;204;138958;-63
2024/02/04 18:15:33;;;;;;;5.00;1.90;;;;;;;9.57;70.15;98429.13;231916;201;154221;-62
2024/02/04 18:20:36;;;;;;;3.30;1.90;;;;;;;9.58;70.69;98431.89;231876;202;138400;-63
2024/02/04 18:25:39;;;;;;;3.70;2.20;;;;;;;9.59;71.15;98430.27;231952;204;138347;-63
2024/02/04 18:30:44;;;;;;;3.30;2.20;;;;;;;9.57;71.26;98428.94;231688;197;153096;-62
2024/02/04 18:35:47;;;;;;;3.20;2.30;;;;;;;9.64;71.02;98429.18;231773;204;139261;-62
2024/02/04 18:40:50;;;;;;;5.10;2.80;;;;;;;9.64;70.69;98432.89;231975;201;138098;-61
2024/02/04 18:45:55;;;;;;;6.00;2.60;;;;;;;9.70;70.41;98436.91;231838;201;153318;-62
2024/02/04 18:50:58;;;;;;;5.50;2.90;;;;;;;9.72;70.17;98440.34;231776;202;138681;-62
2024/02/04 18:56:06;;;;;;;4.90;3.00;;;;;;;9.71;69.69;98445.33;231933;198;138160;-61
2024/02/04 19:01:09;;;;;;;4.80;2.40;;;;;;;9.70;69.30;98456.77;231734;197;154140;-59
2024/02/04 19:06:13;;;;;;;7.20;2.70;;;;;;;9.77;69.13;98457.02;231872;204;138674;-58
2024/02/04 19:11:16;;;;;;;4.70;2.80;;;;;;;9.80;68.72;98463.70;231831;201;138081;-61
2024/02/04 19:16:23;;;;;;;3.80;2.70;;;;;;;9.77;68.42;98465.33;231884;204;153388;-58
2024/02/04 19:21:27;;;;;;;5.80;3.20;;;;;;;9.79;68.42;98463.77;231839;198;140074;-60
2024/02/04 19:26:31;;;;;;;4.80;3.00;;;;;;;9.82;68.24;98470.35;231685;200;138406;-62
2024/02/04 19:31:35;;;;;;;5.20;2.80;;;;;;;9.79;68.12;98461.48;231978;201;153426;-62
2024/02/04 19:36:38;;;;;;;6.30;2.80;;;;;;;9.81;67.62;98468.23;231877;202;142300;-62
2024/02/04 19:41:43;;;;;;;90.60;56.10;;;;;;;9.84;67.14;98475.64;231873;201;138763;-58
2024/02/04 19:46:47;;;;;;;6.90;3.60;;;;;;;9.89;66.89;98470.37;231956;204;153880;-66
2024/02/04 19:51:50;;;;;;;88.30;65.80;;;;;;;9.87;66.90;98469.22;231867;204;138275;-66
2024/02/04 19:56:54;;;;;;;6.20;4.20;;;;;;;10.00;68.94;98471.40;231906;204;138391;-71
2024/02/04 20:01:58;;;;;;;6.30;2.50;;;;;;;10.08;66.13;98470.67;231901;204;153879;-70
2024/02/04 20:07:03;;;;;;;5.40;2.40;;;;;;;9.95;66.06;98463.70;231871;197;137754;-64
2024/02/04 20:12:07;;;;;;;5.10;2.20;;;;;;;9.85;66.12;98461.42;231944;204;137008;-68
2024/02/04 20:17:11;;;;;;;4.50;2.60;;;;;;;9.78;65.94;98459.45;231866;204;153097;-65
2024/02/04 20:22:17;;;;;;;6.10;3.00;;;;;;;9.79;65.91;98461.98;231912;204;136955;-64
2024/02/04 20:27:20;;;;;;;8.40;3.00;;;;;;;9.80;65.33;98460.13;231921;196;138928;-66
2024/02/04 20:32:24;;;;;;;6.90;3.50;;;;;;;9.80;64.97;98452.35;231867;204;153522;-61
2024/02/04 20:37:29;;;;;;;7.00;2.70;;;;;;;9.83;63.99;98449.51;231850;202;137906;-61
2024/02/04 20:42:33;;;;;;;4.30;2.00;;;;;;;9.76;62.75;98444.14;232023;197;137477;-62
2024/02/04 20:47:38;;;;;;;4.90;2.30;;;;;;;9.65;62.17;98441.47;231886;197;153140;-62
2024/02/04 20:52:41;;;;;;;5.20;2.30;;;;;;;9.60;62.64;98448.75;231970;202;138505;-62
2024/02/04 20:57:44;;;;;;;5.00;2.10;;;;;;;9.60;64.46;98464.55;231836;197;140219;-63
2024/02/04 21:02:48;;;;;;;5.30;2.10;;;;;;;9.50;65.69;98465.21;231939;201;154038;-61
2024/02/04 21:07:51;;;;;;;4.10;2.20;;;;;;;9.36;66.15;98459.95;232056;202;273365;-63
2024/02/04 21:12:55;;;;;;;6.10;2.70;;;;;;;9.33;66.60;98458.16;231936;204;137342;-63
2024/02/04 21:17:58;;;;;;;5.60;2.80;;;;;;;9.42;67.03;98454.61;231948;204;153832;-62
2024/02/04 21:23:02;;;;;;;6.10;2.50;;;;;;;9.47;67.22;98455.99;231857;201;138295;-62
2024/02/04 21:28:06;;;;;;;7.20;2.70;;;;;;;9.38;67.16;98452.70;232024;197;138675;-67
2024/02/04 21:33:09;;;;;;;6.60;2.80;;;;;;;9.32;66.73;98450.13;231989;204;153848;-63
2024/02/04 21:38:12;;;;;;;5.50;2.20;;;;;;;9.32;66.11;98447.81;231965;205;137950;-63
2024/02/04 21:43:17;;;;;;;5.50;2.00;;;;;;;9.24;65.09;98446.56;231907;202;138752;-64
2024/02/04 21:48:21;;;;;;;4.60;2.40;;;;;;;9.19;65.24;98440.66;231841;201;153925;-62
2024/02/04 21:53:24;;;;;;;4.20;1.90;;;;;;;9.18;64.84;98434.54;231899;204;137998;-64
2024/02/04 21:58:27;;;;;;;5.20;1.90;;;;;;;9.14;64.49;98431.46;231951;204;138047;-63
2024/02/04 22:03:33;;;;;;;3.10;1.80;;;;;;;9.11;64.89;98434.66;231943;204;153401;-64
2024/02/04 22:08:36;;;;;;;3.70;1.70;;;;;;;9.12;65.36;98435.15;231822;204;138478;-64
2024/02/04 22:13:39;;;;;;;4.20;1.70;;;;;;;9.04;66.03;98427.16;231969;204;138438;-63
2024/02/04 22:18:42;;;;;;;3.70;1.90;;;;;;;8.91;66.49;98411.95;231837;201;153936;-62
2024/02/04 22:23:46;;;;;;;4.00;1.80;;;;;;;8.92;66.69;98411.67;231824;201;138765;-63
2024/02/04 22:28:49;;;;;;;5.80;2.10;;;;;;;8.90;67.00;98421.58;231912;201;138430;-63
2024/02/04 22:33:53;;;;;;;4.30;2.00;;;;;;;8.78;67.85;98425.00;231820;204;154066;-63
2024/02/04 22:38:56;;;;;;;3.70;1.90;;;;;;;8.64;68.71;98411.02;231719;198;137732;-63
2024/02/04 22:44:00;;;;;;;4.10;1.90;;;;;;;8.48;69.65;98407.98;231775;202;139306;-63
2024/02/04 22:49:04;;;;;;;3.20;1.50;;;;;;;8.42;70.14;98415.27;231871;204;155294;-63
2024/02/04 22:54:11;;;;;;;3.00;1.50;;;;;;;8.22;70.91;98418.27;231777;204;137922;-63
2024/02/04 22:59:14;;;;;;;2.50;1.30;;;;;;;8.02;71.41;98423.53;231895;197;141981;-63
2024/02/04 23:04:19;;;;;;;2.20;1.00;;;;;;;7.94;72.12;98416.97;231942;204;153281;-64
2024/02/04 23:09:23;;;;;;;;;;;;;;;7.79;72.21;98413.45;231989;202;138281;-63
2024/02/04 23:14:27;;;;;;;2.90;0.90;;;;;;;7.72;72.39;98402.61;232100;204;137935;-63
2024/02/04 23:19:30;;;;;;;1.60;0.90;;;;;;;7.56;72.94;98406.95;232124;197;153283;-62
2024/02/04 23:24:36;;;;;;;0.90;0.70;;;;;;;7.58;72.99;98409.11;231989;204;139644;-62
2024/02/04 23:29:39;;;;;;;1.20;0.80;;;;;;;7.52;73.04;98406.98;232008;204;138866;-62
2024/02/04 23:34:42;;;;;;;1.30;0.60;;;;;;;7.46;73.62;98415.28;231812;201;153117;-61
2024/02/04 23:39:46;;;;;;;0.90;0.60;;;;;;;7.41;73.37;98418.05;231991;204;137658;-61
2024/02/04 23:44:51;;;;;;;1.20;0.60;;;;;;;7.35;73.54;98412.02;231959;201;142706;-61
2024/02/04 23:49:54;;;;;;;1.30;0.60;;;;;;;7.33;73.81;98412.89;232094;197;153035;-63